sensor_id;sensor_type;location;lat;lon;timestamp;P1;durP1;ratioP1;P2;durP2;ratioP2
18999;SDS011;9633;50.980;13.850;2022-09-09T00:01:05;9.47;;;6.07;;
18999;SDS011;9633;50.980;13.850;2022-09-09T00:02:42;8.07;;;6.47;;
18999;SDS011;9633;50.980;13.850;2022-09-09T00:04:24;7.90;;;6.43;;
18999;SDS011;9633;50.980;13.850;2022-09-09T00:06:02;7.90;;;6.83;;
18999;SDS011;9633;50.980;13.850;2022-09-09T00:07:41;8.10;;;6.70;;
18999;SDS011;9633;50.980;13.850;2022-09-09T00:09:21;8.03;;;6.20;;
18999;SDS011;9633;50.980;13.850;2022-09-09T00:10:59;6.87;;;6.17;;
18999;SDS011;9633;50.980;13.850;2022-09-09T00:12:37;6.63;;;5.93;;
18999;SDS011;9633;50.980;13.850;2022-09-09T00:14:22;7.37;;;5.90;;
18999;SDS011;9633;50.980;13.850;2022-09-09T00:16:04;6.80;;;6.00;;
18999;SDS011;9633;50.980;13.850;2022-09-09T00:17:46;6.70;;;5.10;;
18999;SDS011;9633;50.980;13.850;2022-09-09T00:19:24;7.77;;;5.30;;
18999;SDS011;9633;50.980;13.850;2022-09-09T00:21:05;5.47;;;4.97;;
18999;SDS011;9633;50.980;13.850;2022-09-09T00:22:41;9.93;;;6.40;;
18999;SDS011;9633;50.980;13.850;2022-09-09T00:24:23;6.27;;;5.77;;
18999;SDS011;9633;50.980;13.850;2022-09-09T00:26:02;6.40;;;5.40;;
18999;SDS011;9633;50.980;13.850;2022-09-09T00:27:40;8.03;;;5.80;;
18999;SDS011;9633;50.980;13.850;2022-09-09T00:29:19;7.00;;;5.57;;
18999;SDS011;9633;50.980;13.850;2022-09-09T00:31:04;6.23;;;5.67;;
18999;SDS011;9633;50.980;13.850;2022-09-09T00:32:43;6.00;;;5.10;;
18999;SDS011;9633;50.980;13.850;2022-09-09T00:34:18;6.07;;;5.20;;
18999;SDS011;9633;50.980;13.850;2022-09-09T00:35:54;8.33;;;5.70;;
18999;SDS011;9633;50.980;13.850;2022-09-09T00:37:29;7.53;;;5.13;;
18999;SDS011;9633;50.980;13.850;2022-09-09T00:39:05;9.73;;;5.37;;
18999;SDS011;9633;50.980;13.850;2022-09-09T00:40:47;8.40;;;5.37;;
18999;SDS011;9633;50.980;13.850;2022-09-09T00:42:23;6.53;;;5.33;;
18999;SDS011;9633;50.980;13.850;2022-09-09T00:44:00;7.00;;;5.30;;
18999;SDS011;9633;50.980;13.850;2022-09-09T00:45:45;8.07;;;5.63;;
18999;SDS011;9633;50.980;13.850;2022-09-09T00:47:39;9.77;;;5.80;;
18999;SDS011;9633;50.980;13.850;2022-09-09T00:49:20;9.30;;;6.00;;
18999;SDS011;9633;50.980;13.850;2022-09-09T00:51:05;6.43;;;5.73;;
18999;SDS011;9633;50.980;13.850;2022-09-09T00:52:46;11.00;;;6.47;;
18999;SDS011;9633;50.980;13.850;2022-09-09T00:54:32;7.17;;;6.33;;
18999;SDS011;9633;50.980;13.850;2022-09-09T00:56:14;9.27;;;6.33;;
18999;SDS011;9633;50.980;13.850;2022-09-09T00:57:52;8.20;;;6.53;;
18999;SDS011;9633;50.980;13.850;2022-09-09T00:59:27;7.20;;;6.13;;
18999;SDS011;9633;50.980;13.850;2022-09-09T01:01:09;7.13;;;6.43;;
18999;SDS011;9633;50.980;13.850;2022-09-09T01:02:46;9.17;;;5.93;;
18999;SDS011;9633;50.980;13.850;2022-09-09T01:04:33;8.67;;;6.07;;
18999;SDS011;9633;50.980;13.850;2022-09-09T01:06:13;7.40;;;5.57;;
18999;SDS011;9633;50.980;13.850;2022-09-09T01:07:48;10.20;;;5.87;;
18999;SDS011;9633;50.980;13.850;2022-09-09T01:09:29;7.57;;;6.10;;
18999;SDS011;9633;50.980;13.850;2022-09-09T01:11:11;7.20;;;6.10;;
18999;SDS011;9633;50.980;13.850;2022-09-09T01:12:54;7.40;;;6.20;;
18999;SDS011;9633;50.980;13.850;2022-09-09T01:14:35;6.93;;;5.40;;
18999;SDS011;9633;50.980;13.850;2022-09-09T01:16:13;6.13;;;5.17;;
18999;SDS011;9633;50.980;13.850;2022-09-09T01:17:53;5.27;;;4.73;;
18999;SDS011;9633;50.980;13.850;2022-09-09T01:19:38;6.30;;;5.33;;
18999;SDS011;9633;50.980;13.850;2022-09-09T01:21:24;7.77;;;5.37;;
18999;SDS011;9633;50.980;13.850;2022-09-09T01:23:11;7.10;;;5.13;;
18999;SDS011;9633;50.980;13.850;2022-09-09T01:25:28;5.97;;;4.87;;
18999;SDS011;9633;50.980;13.850;2022-09-09T01:27:12;6.67;;;5.10;;
18999;SDS011;9633;50.980;13.850;2022-09-09T01:28:47;8.50;;;6.00;;
18999;SDS011;9633;50.980;13.850;2022-09-09T01:30:27;8.37;;;5.77;;
18999;SDS011;9633;50.980;13.850;2022-09-09T01:32:35;7.03;;;5.60;;
18999;SDS011;9633;50.980;13.850;2022-09-09T01:34:11;9.90;;;6.20;;
18999;SDS011;9633;50.980;13.850;2022-09-09T01:35:47;6.47;;;5.87;;
18999;SDS011;9633;50.980;13.850;2022-09-09T01:37:27;7.67;;;5.97;;
18999;SDS011;9633;50.980;13.850;2022-09-09T01:39:00;5.90;;;5.40;;
18999;SDS011;9633;50.980;13.850;2022-09-09T01:40:34;7.30;;;6.07;;
18999;SDS011;9633;50.980;13.850;2022-09-09T01:42:08;8.97;;;5.90;;
18999;SDS011;9633;50.980;13.850;2022-09-09T01:43:45;7.50;;;5.90;;
18999;SDS011;9633;50.980;13.850;2022-09-09T01:45:17;11.43;;;6.93;;
18999;SDS011;9633;50.980;13.850;2022-09-09T01:46:51;7.37;;;6.13;;
18999;SDS011;9633;50.980;13.850;2022-09-09T01:48:25;6.77;;;6.07;;
18999;SDS011;9633;50.980;13.850;2022-09-09T01:50:11;8.17;;;6.60;;
18999;SDS011;9633;50.980;13.850;2022-09-09T01:51:48;8.17;;;6.60;;
18999;SDS011;9633;50.980;13.850;2022-09-09T01:53:30;8.70;;;6.43;;
18999;SDS011;9633;50.980;13.850;2022-09-09T01:55:02;7.80;;;6.60;;
18999;SDS011;9633;50.980;13.850;2022-09-09T01:56:43;8.50;;;6.33;;
18999;SDS011;9633;50.980;13.850;2022-09-09T01:58:28;6.97;;;6.20;;
18999;SDS011;9633;50.980;13.850;2022-09-09T02:00:08;7.93;;;6.17;;
18999;SDS011;9633;50.980;13.850;2022-09-09T02:01:50;8.57;;;6.00;;
18999;SDS011;9633;50.980;13.850;2022-09-09T02:03:33;7.17;;;5.40;;
18999;SDS011;9633;50.980;13.850;2022-09-09T02:05:17;6.37;;;5.50;;
18999;SDS011;9633;50.980;13.850;2022-09-09T02:06:58;6.23;;;5.63;;
18999;SDS011;9633;50.980;13.850;2022-09-09T02:08:36;5.90;;;5.40;;
18999;SDS011;9633;50.980;13.850;2022-09-09T02:10:16;7.73;;;5.50;;
18999;SDS011;9633;50.980;13.850;2022-09-09T02:12:05;6.77;;;5.17;;
18999;SDS011;9633;50.980;13.850;2022-09-09T02:13:54;7.07;;;5.73;;
18999;SDS011;9633;50.980;13.850;2022-09-09T02:15:32;6.13;;;5.57;;
18999;SDS011;9633;50.980;13.850;2022-09-09T02:17:11;9.00;;;6.47;;
18999;SDS011;9633;50.980;13.850;2022-09-09T02:19:11;7.87;;;5.87;;
18999;SDS011;9633;50.980;13.850;2022-09-09T02:21:08;7.00;;;6.17;;
18999;SDS011;9633;50.980;13.850;2022-09-09T02:22:45;8.70;;;6.00;;
18999;SDS011;9633;50.980;13.850;2022-09-09T02:24:23;6.90;;;6.20;;
18999;SDS011;9633;50.980;13.850;2022-09-09T02:26:10;7.37;;;5.60;;
18999;SDS011;9633;50.980;13.850;2022-09-09T02:27:53;7.67;;;6.50;;
18999;SDS011;9633;50.980;13.850;2022-09-09T02:29:26;8.57;;;6.30;;
18999;SDS011;9633;50.980;13.850;2022-09-09T02:31:05;7.00;;;6.27;;
18999;SDS011;9633;50.980;13.850;2022-09-09T02:32:43;7.37;;;6.30;;
18999;SDS011;9633;50.980;13.850;2022-09-09T02:34:21;7.60;;;6.30;;
18999;SDS011;9633;50.980;13.850;2022-09-09T02:35:58;6.60;;;5.70;;
18999;SDS011;9633;50.980;13.850;2022-09-09T02:37:36;7.57;;;6.00;;
18999;SDS011;9633;50.980;13.850;2022-09-09T02:39:11;7.10;;;6.00;;
18999;SDS011;9633;50.980;13.850;2022-09-09T02:40:44;7.50;;;6.30;;
18999;SDS011;9633;50.980;13.850;2022-09-09T02:42:18;7.07;;;5.63;;
18999;SDS011;9633;50.980;13.850;2022-09-09T02:43:51;6.20;;;5.60;;
18999;SDS011;9633;50.980;13.850;2022-09-09T02:45:25;6.77;;;5.80;;
18999;SDS011;9633;50.980;13.850;2022-09-09T02:47:16;7.83;;;5.87;;
18999;SDS011;9633;50.980;13.850;2022-09-09T02:48:59;6.33;;;5.53;;
18999;SDS011;9633;50.980;13.850;2022-09-09T02:50:39;6.90;;;5.87;;
18999;SDS011;9633;50.980;13.850;2022-09-09T02:52:25;6.73;;;6.10;;
18999;SDS011;9633;50.980;13.850;2022-09-09T02:54:06;7.20;;;5.70;;
18999;SDS011;9633;50.980;13.850;2022-09-09T02:55:48;6.37;;;5.50;;
18999;SDS011;9633;50.980;13.850;2022-09-09T02:57:27;9.70;;;5.70;;
18999;SDS011;9633;50.980;13.850;2022-09-09T02:59:03;6.13;;;5.20;;
18999;SDS011;9633;50.980;13.850;2022-09-09T03:00:39;8.40;;;5.20;;
18999;SDS011;9633;50.980;13.850;2022-09-09T03:02:14;10.90;;;5.70;;
18999;SDS011;9633;50.980;13.850;2022-09-09T03:03:50;7.13;;;5.77;;
18999;SDS011;9633;50.980;13.850;2022-09-09T03:05:22;7.10;;;6.07;;
18999;SDS011;9633;50.980;13.850;2022-09-09T03:06:55;8.03;;;6.40;;
18999;SDS011;9633;50.980;13.850;2022-09-09T03:08:28;7.33;;;6.63;;
18999;SDS011;9633;50.980;13.850;2022-09-09T03:10:03;9.50;;;6.70;;
18999;SDS011;9633;50.980;13.850;2022-09-09T03:11:36;8.03;;;6.47;;
18999;SDS011;9633;50.980;13.850;2022-09-09T03:13:11;7.27;;;6.57;;
18999;SDS011;9633;50.980;13.850;2022-09-09T03:14:46;7.57;;;6.03;;
18999;SDS011;9633;50.980;13.850;2022-09-09T03:16:19;7.60;;;6.80;;
18999;SDS011;9633;50.980;13.850;2022-09-09T03:17:56;7.80;;;6.40;;
18999;SDS011;9633;50.980;13.850;2022-09-09T03:19:29;7.80;;;6.83;;
18999;SDS011;9633;50.980;13.850;2022-09-09T03:21:01;7.37;;;6.17;;
18999;SDS011;9633;50.980;13.850;2022-09-09T03:22:34;9.13;;;6.20;;
18999;SDS011;9633;50.980;13.850;2022-09-09T03:24:07;7.37;;;6.57;;
18999;SDS011;9633;50.980;13.850;2022-09-09T03:25:46;6.60;;;5.90;;
18999;SDS011;9633;50.980;13.850;2022-09-09T03:27:21;7.00;;;5.83;;
18999;SDS011;9633;50.980;13.850;2022-09-09T03:28:55;6.90;;;6.27;;
18999;SDS011;9633;50.980;13.850;2022-09-09T03:30:29;7.00;;;6.30;;
18999;SDS011;9633;50.980;13.850;2022-09-09T03:32:02;6.33;;;5.60;;
18999;SDS011;9633;50.980;13.850;2022-09-09T03:33:37;7.33;;;6.47;;
18999;SDS011;9633;50.980;13.850;2022-09-09T03:35:11;8.27;;;6.60;;
18999;SDS011;9633;50.980;13.850;2022-09-09T03:36:44;7.30;;;6.30;;
18999;SDS011;9633;50.980;13.850;2022-09-09T03:38:17;8.80;;;7.13;;
18999;SDS011;9633;50.980;13.850;2022-09-09T03:39:50;9.03;;;6.93;;
18999;SDS011;9633;50.980;13.850;2022-09-09T03:41:24;8.40;;;6.67;;
18999;SDS011;9633;50.980;13.850;2022-09-09T03:42:57;9.00;;;7.00;;
18999;SDS011;9633;50.980;13.850;2022-09-09T03:44:31;8.87;;;7.20;;
18999;SDS011;9633;50.980;13.850;2022-09-09T03:46:03;7.80;;;6.53;;
18999;SDS011;9633;50.980;13.850;2022-09-09T03:47:37;7.43;;;6.37;;
18999;SDS011;9633;50.980;13.850;2022-09-09T03:49:12;8.10;;;7.07;;
18999;SDS011;9633;50.980;13.850;2022-09-09T03:50:45;7.70;;;6.90;;
18999;SDS011;9633;50.980;13.850;2022-09-09T03:52:19;11.27;;;7.60;;
18999;SDS011;9633;50.980;13.850;2022-09-09T03:53:55;9.70;;;7.30;;
18999;SDS011;9633;50.980;13.850;2022-09-09T03:55:31;10.07;;;7.60;;
18999;SDS011;9633;50.980;13.850;2022-09-09T03:57:04;8.53;;;7.67;;
18999;SDS011;9633;50.980;13.850;2022-09-09T03:58:37;8.93;;;8.03;;
18999;SDS011;9633;50.980;13.850;2022-09-09T04:00:12;8.27;;;7.47;;
18999;SDS011;9633;50.980;13.850;2022-09-09T04:01:53;11.67;;;8.50;;
18999;SDS011;9633;50.980;13.850;2022-09-09T04:03:28;9.77;;;7.33;;
18999;SDS011;9633;50.980;13.850;2022-09-09T04:05:03;8.97;;;7.47;;
18999;SDS011;9633;50.980;13.850;2022-09-09T04:06:38;9.00;;;7.03;;
18999;SDS011;9633;50.980;13.850;2022-09-09T04:08:11;10.47;;;7.20;;
18999;SDS011;9633;50.980;13.850;2022-09-09T04:09:43;9.57;;;7.50;;
18999;SDS011;9633;50.980;13.850;2022-09-09T04:11:18;8.23;;;6.90;;
18999;SDS011;9633;50.980;13.850;2022-09-09T04:12:53;8.63;;;6.87;;
18999;SDS011;9633;50.980;13.850;2022-09-09T04:14:26;8.70;;;7.30;;
18999;SDS011;9633;50.980;13.850;2022-09-09T04:16:01;9.10;;;6.90;;
18999;SDS011;9633;50.980;13.850;2022-09-09T04:17:38;9.00;;;7.43;;
18999;SDS011;9633;50.980;13.850;2022-09-09T04:19:11;8.77;;;7.13;;
18999;SDS011;9633;50.980;13.850;2022-09-09T04:20:48;10.67;;;7.87;;
18999;SDS011;9633;50.980;13.850;2022-09-09T04:22:23;9.07;;;7.60;;
18999;SDS011;9633;50.980;13.850;2022-09-09T04:23:58;8.27;;;6.60;;
18999;SDS011;9633;50.980;13.850;2022-09-09T04:25:31;8.07;;;6.87;;
18999;SDS011;9633;50.980;13.850;2022-09-09T04:27:05;8.30;;;7.50;;
18999;SDS011;9633;50.980;13.850;2022-09-09T04:28:39;8.37;;;6.90;;
18999;SDS011;9633;50.980;13.850;2022-09-09T04:30:20;7.63;;;6.70;;
18999;SDS011;9633;50.980;13.850;2022-09-09T04:31:53;7.90;;;6.43;;
18999;SDS011;9633;50.980;13.850;2022-09-09T04:33:26;8.83;;;6.90;;
18999;SDS011;9633;50.980;13.850;2022-09-09T04:34:58;7.53;;;6.83;;
18999;SDS011;9633;50.980;13.850;2022-09-09T04:36:33;7.53;;;5.53;;
18999;SDS011;9633;50.980;13.850;2022-09-09T04:38:09;12.23;;;6.53;;
18999;SDS011;9633;50.980;13.850;2022-09-09T04:39:42;9.07;;;6.67;;
18999;SDS011;9633;50.980;13.850;2022-09-09T04:41:16;8.77;;;6.33;;
18999;SDS011;9633;50.980;13.850;2022-09-09T04:42:53;7.70;;;6.30;;
18999;SDS011;9633;50.980;13.850;2022-09-09T04:44:26;8.10;;;6.30;;
18999;SDS011;9633;50.980;13.850;2022-09-09T04:46:00;7.77;;;6.03;;
18999;SDS011;9633;50.980;13.850;2022-09-09T04:47:34;7.33;;;6.63;;
18999;SDS011;9633;50.980;13.850;2022-09-09T04:49:07;8.30;;;6.40;;
18999;SDS011;9633;50.980;13.850;2022-09-09T04:50:53;6.43;;;5.83;;
18999;SDS011;9633;50.980;13.850;2022-09-09T04:52:29;9.67;;;6.57;;
18999;SDS011;9633;50.980;13.850;2022-09-09T04:54:02;8.53;;;6.43;;
18999;SDS011;9633;50.980;13.850;2022-09-09T04:55:35;7.67;;;5.97;;
18999;SDS011;9633;50.980;13.850;2022-09-09T04:57:07;7.83;;;6.40;;
18999;SDS011;9633;50.980;13.850;2022-09-09T04:58:49;7.80;;;6.23;;
18999;SDS011;9633;50.980;13.850;2022-09-09T05:00:24;7.57;;;6.80;;
18999;SDS011;9633;50.980;13.850;2022-09-09T05:01:58;8.70;;;6.37;;
18999;SDS011;9633;50.980;13.850;2022-09-09T05:03:33;6.80;;;6.07;;
18999;SDS011;9633;50.980;13.850;2022-09-09T05:05:09;8.17;;;6.87;;
18999;SDS011;9633;50.980;13.850;2022-09-09T05:06:43;6.80;;;5.80;;
18999;SDS011;9633;50.980;13.850;2022-09-09T05:08:18;6.53;;;4.53;;
18999;SDS011;9633;50.980;13.850;2022-09-09T05:09:52;6.10;;;4.03;;
18999;SDS011;9633;50.980;13.850;2022-09-09T05:11:26;4.40;;;3.80;;
18999;SDS011;9633;50.980;13.850;2022-09-09T05:13:18;5.87;;;4.37;;
18999;SDS011;9633;50.980;13.850;2022-09-09T05:14:52;7.23;;;4.40;;
18999;SDS011;9633;50.980;13.850;2022-09-09T05:16:26;6.77;;;4.20;;
18999;SDS011;9633;50.980;13.850;2022-09-09T05:18:00;5.70;;;3.90;;
18999;SDS011;9633;50.980;13.850;2022-09-09T05:19:35;5.80;;;3.80;;
18999;SDS011;9633;50.980;13.850;2022-09-09T05:21:08;8.03;;;4.57;;
18999;SDS011;9633;50.980;13.850;2022-09-09T05:22:42;6.33;;;4.70;;
18999;SDS011;9633;50.980;13.850;2022-09-09T05:24:17;8.83;;;4.03;;
18999;SDS011;9633;50.980;13.850;2022-09-09T05:25:55;6.40;;;4.23;;
18999;SDS011;9633;50.980;13.850;2022-09-09T05:27:29;4.43;;;4.03;;
18999;SDS011;9633;50.980;13.850;2022-09-09T05:29:03;6.97;;;4.33;;
18999;SDS011;9633;50.980;13.850;2022-09-09T05:30:37;6.70;;;4.47;;
18999;SDS011;9633;50.980;13.850;2022-09-09T05:32:10;7.27;;;4.63;;
18999;SDS011;9633;50.980;13.850;2022-09-09T05:33:47;7.33;;;4.60;;
18999;SDS011;9633;50.980;13.850;2022-09-09T05:35:21;6.37;;;4.50;;
18999;SDS011;9633;50.980;13.850;2022-09-09T05:36:54;7.03;;;4.37;;
18999;SDS011;9633;50.980;13.850;2022-09-09T05:38:29;5.13;;;3.87;;
18999;SDS011;9633;50.980;13.850;2022-09-09T05:40:06;5.27;;;3.80;;
18999;SDS011;9633;50.980;13.850;2022-09-09T05:41:39;7.10;;;4.20;;
18999;SDS011;9633;50.980;13.850;2022-09-09T05:43:13;6.00;;;4.00;;
18999;SDS011;9633;50.980;13.850;2022-09-09T05:44:46;6.30;;;4.03;;
18999;SDS011;9633;50.980;13.850;2022-09-09T05:46:20;4.40;;;3.87;;
18999;SDS011;9633;50.980;13.850;2022-09-09T05:47:56;4.90;;;4.27;;
18999;SDS011;9633;50.980;13.850;2022-09-09T05:49:31;5.87;;;3.80;;
18999;SDS011;9633;50.980;13.850;2022-09-09T05:51:05;6.10;;;4.20;;
18999;SDS011;9633;50.980;13.850;2022-09-09T05:52:39;5.73;;;4.17;;
18999;SDS011;9633;50.980;13.850;2022-09-09T05:54:12;4.57;;;4.17;;
18999;SDS011;9633;50.980;13.850;2022-09-09T05:55:57;6.33;;;4.33;;
18999;SDS011;9633;50.980;13.850;2022-09-09T05:57:32;5.63;;;4.00;;
18999;SDS011;9633;50.980;13.850;2022-09-09T05:59:05;7.23;;;4.97;;
18999;SDS011;9633;50.980;13.850;2022-09-09T06:00:38;6.40;;;4.50;;
18999;SDS011;9633;50.980;13.850;2022-09-09T06:02:12;6.33;;;4.83;;
18999;SDS011;9633;50.980;13.850;2022-09-09T06:03:46;7.90;;;4.50;;
18999;SDS011;9633;50.980;13.850;2022-09-09T06:05:20;5.57;;;4.43;;
18999;SDS011;9633;50.980;13.850;2022-09-09T06:06:54;5.00;;;4.50;;
18999;SDS011;9633;50.980;13.850;2022-09-09T06:08:27;5.33;;;4.10;;
18999;SDS011;9633;50.980;13.850;2022-09-09T06:10:00;4.57;;;4.07;;
18999;SDS011;9633;50.980;13.850;2022-09-09T06:11:36;5.17;;;4.17;;
18999;SDS011;9633;50.980;13.850;2022-09-09T06:13:11;4.50;;;4.10;;
18999;SDS011;9633;50.980;13.850;2022-09-09T06:14:44;5.37;;;4.40;;
18999;SDS011;9633;50.980;13.850;2022-09-09T06:16:19;7.47;;;4.37;;
18999;SDS011;9633;50.980;13.850;2022-09-09T06:17:55;5.13;;;4.63;;
18999;SDS011;9633;50.980;13.850;2022-09-09T06:19:28;4.63;;;4.20;;
18999;SDS011;9633;50.980;13.850;2022-09-09T06:21:03;4.60;;;4.20;;
18999;SDS011;9633;50.980;13.850;2022-09-09T06:22:39;5.83;;;3.87;;
18999;SDS011;9633;50.980;13.850;2022-09-09T06:24:13;5.97;;;3.70;;
18999;SDS011;9633;50.980;13.850;2022-09-09T06:25:48;3.90;;;3.47;;
18999;SDS011;9633;50.980;13.850;2022-09-09T06:27:24;7.37;;;3.73;;
18999;SDS011;9633;50.980;13.850;2022-09-09T06:28:58;6.83;;;3.90;;
18999;SDS011;9633;50.980;13.850;2022-09-09T06:30:34;4.30;;;3.90;;
18999;SDS011;9633;50.980;13.850;2022-09-09T06:32:07;4.87;;;3.70;;
18999;SDS011;9633;50.980;13.850;2022-09-09T06:33:41;6.63;;;3.50;;
18999;SDS011;9633;50.980;13.850;2022-09-09T06:35:16;3.40;;;3.10;;
18999;SDS011;9633;50.980;13.850;2022-09-09T06:36:49;4.47;;;3.37;;
18999;SDS011;9633;50.980;13.850;2022-09-09T06:38:23;3.50;;;3.20;;
18999;SDS011;9633;50.980;13.850;2022-09-09T06:39:57;4.33;;;3.53;;
18999;SDS011;9633;50.980;13.850;2022-09-09T06:41:31;3.73;;;3.37;;
18999;SDS011;9633;50.980;13.850;2022-09-09T06:43:08;4.80;;;3.07;;
18999;SDS011;9633;50.980;13.850;2022-09-09T06:44:45;3.80;;;3.40;;
18999;SDS011;9633;50.980;13.850;2022-09-09T06:46:28;5.53;;;3.37;;
18999;SDS011;9633;50.980;13.850;2022-09-09T06:48:04;3.73;;;3.10;;
18999;SDS011;9633;50.980;13.850;2022-09-09T06:49:38;3.40;;;2.73;;
18999;SDS011;9633;50.980;13.850;2022-09-09T06:51:14;3.30;;;3.00;;
18999;SDS011;9633;50.980;13.850;2022-09-09T06:52:49;5.23;;;3.23;;
18999;SDS011;9633;50.980;13.850;2022-09-09T06:54:23;5.50;;;3.13;;
18999;SDS011;9633;50.980;13.850;2022-09-09T06:55:57;3.53;;;2.80;;
18999;SDS011;9633;50.980;13.850;2022-09-09T06:57:31;4.53;;;3.03;;
18999;SDS011;9633;50.980;13.850;2022-09-09T06:59:11;6.07;;;2.97;;
18999;SDS011;9633;50.980;13.850;2022-09-09T07:00:45;4.37;;;2.83;;
18999;SDS011;9633;50.980;13.850;2022-09-09T07:02:18;3.30;;;3.00;;
18999;SDS011;9633;50.980;13.850;2022-09-09T07:03:52;5.30;;;2.73;;
18999;SDS011;9633;50.980;13.850;2022-09-09T07:05:27;3.20;;;2.90;;
18999;SDS011;9633;50.980;13.850;2022-09-09T07:07:00;3.60;;;3.20;;
18999;SDS011;9633;50.980;13.850;2022-09-09T07:08:33;3.60;;;2.70;;
18999;SDS011;9633;50.980;13.850;2022-09-09T07:10:07;6.57;;;4.80;;
18999;SDS011;9633;50.980;13.850;2022-09-09T07:11:42;4.20;;;3.70;;
18999;SDS011;9633;50.980;13.850;2022-09-09T07:13:17;8.20;;;6.40;;
18999;SDS011;9633;50.980;13.850;2022-09-09T07:14:51;4.30;;;2.70;;
18999;SDS011;9633;50.980;13.850;2022-09-09T07:16:24;3.57;;;2.23;;
18999;SDS011;9633;50.980;13.850;2022-09-09T07:18:00;3.77;;;2.80;;
18999;SDS011;9633;50.980;13.850;2022-09-09T07:19:35;3.40;;;2.70;;
18999;SDS011;9633;50.980;13.850;2022-09-09T07:21:09;5.50;;;2.60;;
18999;SDS011;9633;50.980;13.850;2022-09-09T07:22:44;5.10;;;2.73;;
18999;SDS011;9633;50.980;13.850;2022-09-09T07:24:18;3.97;;;2.87;;
18999;SDS011;9633;50.980;13.850;2022-09-09T07:25:51;4.13;;;2.90;;
18999;SDS011;9633;50.980;13.850;2022-09-09T07:27:24;4.90;;;2.33;;
18999;SDS011;9633;50.980;13.850;2022-09-09T07:28:58;5.17;;;2.60;;
18999;SDS011;9633;50.980;13.850;2022-09-09T07:30:32;6.03;;;2.27;;
18999;SDS011;9633;50.980;13.850;2022-09-09T07:32:05;4.47;;;2.23;;
18999;SDS011;9633;50.980;13.850;2022-09-09T07:33:41;3.23;;;2.10;;
18999;SDS011;9633;50.980;13.850;2022-09-09T07:35:15;6.97;;;2.40;;
18999;SDS011;9633;50.980;13.850;2022-09-09T07:36:49;4.70;;;2.20;;
18999;SDS011;9633;50.980;13.850;2022-09-09T07:38:23;3.77;;;2.00;;
18999;SDS011;9633;50.980;13.850;2022-09-09T07:39:56;4.97;;;2.20;;
18999;SDS011;9633;50.980;13.850;2022-09-09T07:41:31;2.27;;;2.00;;
18999;SDS011;9633;50.980;13.850;2022-09-09T07:43:06;3.17;;;1.90;;
18999;SDS011;9633;50.980;13.850;2022-09-09T07:44:40;3.13;;;2.13;;
18999;SDS011;9633;50.980;13.850;2022-09-09T07:46:21;3.40;;;2.30;;
18999;SDS011;9633;50.980;13.850;2022-09-09T07:47:56;3.63;;;2.77;;
18999;SDS011;9633;50.980;13.850;2022-09-09T07:49:29;4.80;;;2.83;;
18999;SDS011;9633;50.980;13.850;2022-09-09T07:51:06;4.77;;;2.60;;
18999;SDS011;9633;50.980;13.850;2022-09-09T07:52:40;3.80;;;2.50;;
18999;SDS011;9633;50.980;13.850;2022-09-09T07:54:15;4.37;;;2.40;;
18999;SDS011;9633;50.980;13.850;2022-09-09T07:55:53;3.57;;;2.03;;
18999;SDS011;9633;50.980;13.850;2022-09-09T07:57:27;1.80;;;1.70;;
18999;SDS011;9633;50.980;13.850;2022-09-09T07:59:01;5.10;;;2.03;;
18999;SDS011;9633;50.980;13.850;2022-09-09T08:00:35;5.13;;;2.10;;
18999;SDS011;9633;50.980;13.850;2022-09-09T08:02:10;2.77;;;1.90;;
18999;SDS011;9633;50.980;13.850;2022-09-09T08:03:44;3.47;;;1.97;;
18999;SDS011;9633;50.980;13.850;2022-09-09T08:05:17;2.80;;;1.80;;
18999;SDS011;9633;50.980;13.850;2022-09-09T08:06:52;2.10;;;1.67;;
18999;SDS011;9633;50.980;13.850;2022-09-09T08:08:29;3.60;;;1.83;;
18999;SDS011;9633;50.980;13.850;2022-09-09T08:10:02;4.37;;;1.90;;
18999;SDS011;9633;50.980;13.850;2022-09-09T08:11:38;4.43;;;2.17;;
18999;SDS011;9633;50.980;13.850;2022-09-09T08:13:12;4.00;;;1.90;;
18999;SDS011;9633;50.980;13.850;2022-09-09T08:14:49;5.33;;;1.77;;
18999;SDS011;9633;50.980;13.850;2022-09-09T08:16:27;4.50;;;2.20;;
18999;SDS011;9633;50.980;13.850;2022-09-09T08:18:05;2.27;;;1.90;;
18999;SDS011;9633;50.980;13.850;2022-09-09T08:19:38;3.03;;;1.80;;
18999;SDS011;9633;50.980;13.850;2022-09-09T08:21:17;3.63;;;1.70;;
18999;SDS011;9633;50.980;13.850;2022-09-09T08:22:52;4.27;;;2.17;;
18999;SDS011;9633;50.980;13.850;2022-09-09T08:24:27;3.67;;;2.00;;
18999;SDS011;9633;50.980;13.850;2022-09-09T08:26:04;2.23;;;1.60;;
18999;SDS011;9633;50.980;13.850;2022-09-09T08:27:38;2.37;;;1.70;;
18999;SDS011;9633;50.980;13.850;2022-09-09T08:29:12;3.33;;;2.10;;
18999;SDS011;9633;50.980;13.850;2022-09-09T08:30:45;3.20;;;2.40;;
18999;SDS011;9633;50.980;13.850;2022-09-09T08:32:19;2.47;;;2.23;;
18999;SDS011;9633;50.980;13.850;2022-09-09T08:33:54;5.47;;;2.20;;
18999;SDS011;9633;50.980;13.850;2022-09-09T08:35:28;3.13;;;2.40;;
18999;SDS011;9633;50.980;13.850;2022-09-09T08:37:03;3.27;;;2.07;;
18999;SDS011;9633;50.980;13.850;2022-09-09T08:38:42;3.00;;;1.90;;
18999;SDS011;9633;50.980;13.850;2022-09-09T08:40:21;3.37;;;1.80;;
18999;SDS011;9633;50.980;13.850;2022-09-09T08:44:01;2.90;;;2.17;;
18999;SDS011;9633;50.980;13.850;2022-09-09T08:45:42;2.70;;;2.10;;
18999;SDS011;9633;50.980;13.850;2022-09-09T08:47:23;3.57;;;2.17;;
18999;SDS011;9633;50.980;13.850;2022-09-09T08:49:06;2.63;;;1.80;;
18999;SDS011;9633;50.980;13.850;2022-09-09T08:50:52;3.57;;;2.00;;
18999;SDS011;9633;50.980;13.850;2022-09-09T08:52:36;4.50;;;2.13;;
18999;SDS011;9633;50.980;13.850;2022-09-09T08:54:12;2.90;;;1.90;;
18999;SDS011;9633;50.980;13.850;2022-09-09T08:56:08;3.47;;;2.40;;
18999;SDS011;9633;50.980;13.850;2022-09-09T08:57:54;5.20;;;2.37;;
18999;SDS011;9633;50.980;13.850;2022-09-09T08:59:32;3.27;;;2.20;;
18999;SDS011;9633;50.980;13.850;2022-09-09T09:01:12;5.00;;;2.40;;
18999;SDS011;9633;50.980;13.850;2022-09-09T09:03:12;3.60;;;2.07;;
18999;SDS011;9633;50.980;13.850;2022-09-09T09:05:07;4.93;;;2.60;;
18999;SDS011;9633;50.980;13.850;2022-09-09T09:06:59;2.93;;;2.20;;
18999;SDS011;9633;50.980;13.850;2022-09-09T09:08:43;3.43;;;2.10;;
18999;SDS011;9633;50.980;13.850;2022-09-09T09:10:25;4.57;;;2.40;;
18999;SDS011;9633;50.980;13.850;2022-09-09T09:12:16;3.20;;;2.40;;
18999;SDS011;9633;50.980;13.850;2022-09-09T09:13:53;4.90;;;2.23;;
18999;SDS011;9633;50.980;13.850;2022-09-09T09:15:31;4.33;;;2.40;;
18999;SDS011;9633;50.980;13.850;2022-09-09T09:17:11;4.73;;;2.70;;
18999;SDS011;9633;50.980;13.850;2022-09-09T09:18:47;4.50;;;2.57;;
18999;SDS011;9633;50.980;13.850;2022-09-09T09:20:25;4.63;;;2.53;;
18999;SDS011;9633;50.980;13.850;2022-09-09T09:22:06;5.30;;;2.50;;
18999;SDS011;9633;50.980;13.850;2022-09-09T09:23:51;3.47;;;2.40;;
18999;SDS011;9633;50.980;13.850;2022-09-09T09:25:31;5.57;;;2.50;;
18999;SDS011;9633;50.980;13.850;2022-09-09T09:27:12;4.57;;;2.50;;
18999;SDS011;9633;50.980;13.850;2022-09-09T09:28:52;4.33;;;2.40;;
18999;SDS011;9633;50.980;13.850;2022-09-09T09:30:29;5.40;;;2.67;;
18999;SDS011;9633;50.980;13.850;2022-09-09T09:32:11;5.93;;;2.57;;
18999;SDS011;9633;50.980;13.850;2022-09-09T09:33:49;3.40;;;2.40;;
18999;SDS011;9633;50.980;13.850;2022-09-09T09:35:28;6.00;;;2.97;;
18999;SDS011;9633;50.980;13.850;2022-09-09T09:37:01;5.20;;;2.50;;
18999;SDS011;9633;50.980;13.850;2022-09-09T09:38:54;3.77;;;2.37;;
18999;SDS011;9633;50.980;13.850;2022-09-09T09:40:50;2.93;;;2.13;;
18999;SDS011;9633;50.980;13.850;2022-09-09T09:42:28;4.20;;;2.20;;
18999;SDS011;9633;50.980;13.850;2022-09-09T09:44:02;7.63;;;2.50;;
18999;SDS011;9633;50.980;13.850;2022-09-09T09:45:40;6.30;;;2.70;;
18999;SDS011;9633;50.980;13.850;2022-09-09T09:47:31;5.30;;;3.03;;
18999;SDS011;9633;50.980;13.850;2022-09-09T09:49:16;3.70;;;1.97;;